TimeEDT,TemperatureF,Dew PointF,Humidity,Sea Level PressureIn,VisibilityMPH,Wind Direction,Wind SpeedMPH,Gust SpeedMPH,PrecipitationIn,Events,Conditions,WindDirDegrees,DateUTC
12:33 AM,57.2,57.2,100,29.86,-9999.0,Calm,Calm,-,N/A,,Partly Cloudy,0,2013-05-06 04:33:00
12:53 AM,57.2,55.4,94,29.86,-9999.0,Calm,Calm,-,N/A,,Mostly Cloudy,0,2013-05-06 04:53:00
12:56 AM,57.9,57.0,97,29.86,-9999.0,Calm,Calm,-,N/A,,Mostly Cloudy,0,2013-05-06 04:56:00
1:04 AM,57.2,57.2,100,29.86,-9999.0,WSW,3.5,-,N/A,,Overcast,240,2013-05-06 05:04:00
1:56 AM,59.0,57.0,93,29.86,-9999.0,Calm,Calm,-,N/A,,Overcast,0,2013-05-06 05:56:00
2:56 AM,57.9,55.9,93,29.84,-9999.0,Calm,Calm,-,N/A,,Mostly Cloudy,0,2013-05-06 06:56:00
3:56 AM,57.9,55.0,90,29.84,-9999.0,Calm,Calm,-,N/A,,Scattered Clouds,0,2013-05-06 07:56:00
4:56 AM,57.0,53.1,87,29.86,-9999.0,WSW,5.8,-,N/A,,Clear,250,2013-05-06 08:56:00
5:56 AM,55.9,52.0,87,29.87,-9999.0,WNW,6.9,-,0.01,,Clear,290,2013-05-06 09:56:00
6:56 AM,55.0,51.1,86,29.89,10.0,West,10.4,-,N/A,,Scattered Clouds,280,2013-05-06 10:56:00
7:56 AM,57.0,50.0,77,29.91,10.0,West,8.1,-,N/A,,Scattered Clouds,280,2013-05-06 11:56:00
8:56 AM,59.0,48.9,69,29.91,10.0,WNW,9.2,-,N/A,,Partly Cloudy,300,2013-05-06 12:56:00
9:56 AM,61.0,48.9,64,29.93,10.0,West,9.2,-,N/A,,Scattered Clouds,280,2013-05-06 13:56:00
10:56 AM,64.0,48.9,58,29.94,10.0,West,8.1,-,N/A,,Scattered Clouds,270,2013-05-06 14:56:00
11:56 AM,66.0,46.9,50,29.95,10.0,West,11.5,18.4,N/A,,Scattered Clouds,270,2013-05-06 15:56:00
12:56 PM,69.1,46.0,44,29.92,-9999.0,West,12.7,-,N/A,,Clear,270,2013-05-06 16:56:00
1:56 PM,70.0,44.1,39,29.91,-9999.0,WSW,10.4,18.4,N/A,,Clear,240,2013-05-06 17:56:00
2:56 PM,71.1,44.1,38,29.90,10.0,WNW,8.1,-,N/A,,Partly Cloudy,300,2013-05-06 18:56:00
3:56 PM,71.1,45.0,39,29.88,10.0,WNW,11.5,-,N/A,,Partly Cloudy,290,2013-05-06 19:56:00
4:56 PM,71.1,44.1,38,29.88,10.0,WNW,8.1,-,N/A,,Scattered Clouds,300,2013-05-06 20:56:00
5:56 PM,70.0,44.1,39,29.88,10.0,WNW,10.4,-,N/A,,Scattered Clouds,300,2013-05-06 21:56:00
6:56 PM,69.1,44.1,40,29.88,10.0,West,10.4,-,N/A,,Mostly Cloudy,260,2013-05-06 22:56:00
7:56 PM,66.0,45.0,47,29.90,10.0,West,3.5,-,N/A,,Scattered Clouds,280,2013-05-06 23:56:00
8:56 PM,61.0,51.1,70,29.91,10.0,Calm,Calm,-,N/A,,Mostly Cloudy,0,2013-05-07 00:56:00
9:56 PM,60.1,48.9,67,29.94,10.0,West,4.6,-,N/A,,Scattered Clouds,260,2013-05-07 01:56:00
10:56 PM,62.1,48.0,60,29.96,10.0,WNW,6.9,-,N/A,,Mostly Cloudy,290,2013-05-07 02:56:00
11:56 PM,60.1,48.9,67,29.95,10.0,West,4.6,-,N/A,,Clear,280,2013-05-07 03:56:00